»·PEaware :: N791GM KLAS-KSAN

N791GM :: KLAS-KSAN

FLIGHT INFORMATION

Flight Status: Arrived
Operator: Privately registered:
United States
More flights under this callsign
Pilot: Chandler S. (807)
Aircraft: BOMBARDIER BD-100 CHALLENGER 300
(CL30)
More flights by this aircraft type
Origin: KLAS McCarran Intl
United States
Destination: KSAN San Diego Intl-Lindbergh
United States
More flights between these airports :: More routes between these airports
Route: BOACH8 LVELL LUCKI1
File this flight plan on PilotEdge
Remarks:
Altitude:
(Current/Filed)
28,000ft
Speed:
(Current/Filed)
300kts
Departed: 18-Nov-17 02:12 PM
Arrived: 18-Nov-17 02:57 PM
Distance/Time
Traveled:
224nm/0:45
Distance/Time
To Go:
Arrived

Flight Plot

Page will automatically refresh every two minutes.

Flight plan parsing failed; only flown route is shown


Map Options




Map Legend


Flown Route
Filed Route
Departure Airport
Arrival Airport
Navaid (VOR, NDB)
Fix

Horizontal Profiles

Position Reports

Time Latitude Longitude Heading Altitude Ground
Speed
18-Nov-17 13:58 36.081744 -115.170250 270 2148ft 0kts
18-Nov-17 13:59 36.081744 -115.170250 270 2148ft 0kts
18-Nov-17 14:00 36.081744 -115.170250 270 2148ft 0kts
18-Nov-17 14:01 36.081744 -115.170250 270 2148ft 0kts
18-Nov-17 14:02 36.081744 -115.170250 270 2148ft 0kts
18-Nov-17 14:03 36.081744 -115.170250 270 2148ft 0kts
18-Nov-17 14:04 36.081744 -115.170250 270 2148ft 0kts
18-Nov-17 14:05 36.081744 -115.170250 270 2148ft 0kts
18-Nov-17 14:06 36.081744 -115.170250 270 2148ft 0kts
18-Nov-17 14:07 36.081744 -115.170250 270 2148ft 0kts
18-Nov-17 14:08 36.081744 -115.170250 270 2148ft 0kts
18-Nov-17 14:09 36.081744 -115.170250 270 2148ft 0kts
18-Nov-17 14:10 36.081744 -115.170311 268 2148ft 2kts
18-Nov-17 14:11 36.083556 -115.168010 24 2148ft 18kts
18-Nov-17 14:12 36.089445 -115.164626 24 2148ft 24kts
18-Nov-17 14:13 36.095681 -115.161098 25 2148ft 25kts
18-Nov-17 14:14 36.099827 -115.157769 78 2148ft 11kts
18-Nov-17 14:15 36.099851 -115.157508 88 2148ft 0kts
18-Nov-17 14:16 36.099851 -115.157508 88 2148ft 0kts
18-Nov-17 14:17 36.096019 -115.158508 204 2148ft 97kts
18-Nov-17 14:18 36.044926 -115.188022 204 4958ft 238kts
18-Nov-17 14:19 35.998724 -115.246551 240 7054ft 269kts
18-Nov-17 14:20 35.942774 -115.298605 189 7769ft 283kts
18-Nov-17 14:21 35.866835 -115.311621 186 10810ft 279kts
18-Nov-17 14:22 35.788194 -115.305930 176 13031ft 304kts
18-Nov-17 14:23 35.692575 -115.296074 175 13043ft 363kts
18-Nov-17 14:24 35.592470 -115.298415 182 13419ft 358kts
18-Nov-17 14:25 35.497182 -115.301916 183 16484ft 341kts
18-Nov-17 14:26 35.402151 -115.305607 184 18762ft 349kts
18-Nov-17 14:27 35.301724 -115.309716 183 19040ft 407kts
18-Nov-17 14:28 35.189846 -115.313848 184 22760ft 385kts
18-Nov-17 14:29 35.083529 -115.318040 186 25541ft 394kts
18-Nov-17 14:30 34.973257 -115.322207 187 27916ft 408kts
18-Nov-17 14:31 34.851644 -115.327132 188 27951ft 471kts
18-Nov-17 14:32 34.724146 -115.358099 205 27982ft 474kts
18-Nov-17 14:33 34.599867 -115.410690 206 27995ft 470kts
18-Nov-17 14:34 34.478287 -115.463396 206 28011ft 460kts
18-Nov-17 14:35 34.358860 -115.515298 206 28008ft 456kts
18-Nov-17 14:36 34.250186 -115.586256 218 28015ft 445kts
18-Nov-17 14:37 34.136151 -115.649393 209 28016ft 454kts
18-Nov-17 14:38 34.023319 -115.703156 208 27984ft 458kts
18-Nov-17 14:39 33.904472 -115.759613 208 27866ft 462kts
18-Nov-17 14:40 33.787347 -115.816967 208 27852ft 463kts
18-Nov-17 14:41 33.668728 -115.872874 207 27551ft 467kts
18-Nov-17 14:42 33.555795 -115.925481 207 24946ft 410kts
18-Nov-17 14:43 33.477851 -116.015936 237 22829ft 395kts
18-Nov-17 14:44 33.413344 -116.121897 238 20838ft 393kts
18-Nov-17 14:45 33.350805 -116.227489 234 18897ft 388kts
18-Nov-17 14:46 33.261231 -116.292255 210 17534ft 381kts
18-Nov-17 14:47 33.166955 -116.349606 208 15282ft 381kts
18-Nov-17 14:48 33.073495 -116.404692 207 12991ft 371kts
18-Nov-17 14:49 33.001153 -116.451479 220 11950ft 332kts
18-Nov-17 14:50 32.920333 -116.530986 221 9866ft 315kts
18-Nov-17 14:51 32.856515 -116.594815 221 8677ft 277kts
18-Nov-17 14:52 32.809305 -116.642197 222 7978ft 251kts
18-Nov-17 14:53 32.758338 -116.713976 241 7209ft 254kts
18-Nov-17 14:54 32.723295 -116.786187 241 5892ft 251kts
18-Nov-17 14:55 32.695501 -116.858903 250 4989ft 244kts
18-Nov-17 14:56 32.675702 -116.923638 251 4077ft 247kts
18-Nov-17 14:57 32.687192 -116.997499 286 3315ft 226kts
18-Nov-17 14:58 32.702870 -117.062404 287 2095ft 197kts
18-Nov-17 14:59 32.714283 -117.110570 287 1372ft 131kts
18-Nov-17 15:00 32.724117 -117.150688 286 671ft 129kts
18-Nov-17 15:01 32.732969 -117.187221 287 24ft 85kts
18-Nov-17 15:02 32.734810 -117.190057 106 24ft 16kts
18-Nov-17 15:03 32.732994 -117.182444 105 24ft 24kts
18-Nov-17 15:04 32.732459 -117.176952 87 24ft 6kts
18-Nov-17 15:05 32.732222 -117.177196 193 24ft 0kts
18-Nov-17 15:06 32.732222 -117.177196 193 24ft 0kts
18-Nov-17 15:07 32.732222 -117.177196 193 24ft 0kts

Navigation Log

Ident Type
Flight plan parsing failed, navigation log unavailable